createdAt,value
2022-10-09T04:49:16.468Z,101677.31
2022-10-09T04:51:44.549Z,101682.34
2022-10-09T04:54:12.585Z,101661.66
2022-10-09T04:56:39.987Z,101697.50
2022-10-09T04:59:10.741Z,101666.56
2022-10-09T05:01:38.808Z,101688.78
2022-10-09T05:04:13.264Z,101666.84
2022-10-09T05:06:41.065Z,101702.25
2022-10-09T05:09:16.939Z,101686.31
2022-10-09T05:11:44.046Z,101696.16
2022-10-09T05:14:11.204Z,101683.53
2022-10-09T05:17:08.132Z,101691.72
2022-10-09T05:19:25.401Z,101671.88
2022-10-09T05:21:52.522Z,101693.13
2022-10-09T05:24:19.683Z,101673.03
2022-10-09T05:26:46.844Z,101672.72
2022-10-09T05:29:13.933Z,101682.66
2022-10-09T05:31:42.260Z,101673.53
2022-10-09T05:34:11.845Z,101693.13
2022-10-09T05:36:39.022Z,101688.44
2022-10-09T05:39:06.323Z,101682.25
2022-10-09T05:41:33.316Z,101691.53
2022-10-09T05:44:04.780Z,101682.25
2022-10-09T05:46:31.952Z,101676.50
2022-10-09T05:49:06.019Z,101679.59
2022-10-09T05:51:36.302Z,101698.06
2022-10-09T05:54:04.698Z,101702.72
2022-10-09T05:56:34.294Z,101694.78
2022-10-09T05:59:04.457Z,101684.63
2022-10-09T06:01:40.079Z,101663.56
2022-10-09T06:04:11.143Z,101684.09
2022-10-09T06:06:39.931Z,101707.34
2022-10-09T06:09:09.418Z,101704.09
2022-10-09T06:11:38.789Z,101708.03
2022-10-09T06:14:08.363Z,101692.69
2022-10-09T06:16:38.850Z,101686.13
2022-10-09T06:19:07.149Z,101712.69
2022-10-09T06:21:35.400Z,101689.41
2022-10-09T06:24:04.435Z,101696.19
2022-10-09T06:26:31.587Z,101686.84
2022-10-09T06:29:01.302Z,101701.06
2022-10-09T06:31:31.154Z,101707.66
2022-10-09T06:34:03.578Z,101709.13
2022-10-09T06:36:33.469Z,101678.00
2022-10-09T06:39:02.559Z,101699.06
2022-10-09T06:41:30.511Z,101688.50
2022-10-09T06:44:06.022Z,101695.09
2022-10-09T06:46:37.444Z,101712.63
2022-10-09T06:49:05.737Z,101698.69
2022-10-09T06:51:34.358Z,101714.72
2022-10-09T06:54:04.085Z,101718.00
2022-10-09T06:56:32.396Z,101696.75
2022-10-09T06:59:04.976Z,101720.44
2022-10-09T07:01:33.099Z,101701.63
2022-10-09T07:04:02.659Z,101699.53
2022-10-09T07:06:34.135Z,101701.28
2022-10-09T07:09:05.182Z,101727.81
2022-10-09T07:11:38.023Z,101710.31
2022-10-09T07:14:07.738Z,101715.66
2022-10-09T07:16:40.471Z,101722.22
2022-10-09T07:19:11.482Z,101709.13
2022-10-09T07:21:40.617Z,101711.09
2022-10-09T07:24:08.786Z,101704.91
2022-10-09T07:26:38.735Z,101704.22
2022-10-09T07:29:08.452Z,101714.72
2022-10-09T07:31:36.019Z,101715.88
2022-10-09T07:34:04.061Z,101736.00
2022-10-09T07:36:31.077Z,101746.03
2022-10-09T07:38:59.386Z,101744.53
2022-10-09T07:41:28.541Z,101712.41
2022-10-09T07:43:55.658Z,101728.28
2022-10-09T07:46:24.238Z,101748.09
2022-10-09T07:48:51.863Z,101752.63
2022-10-09T07:51:24.505Z,101743.53
2022-10-09T07:53:52.389Z,101735.16
2022-10-09T07:56:22.068Z,101743.84
2022-10-09T07:58:54.395Z,101730.19
2022-10-09T08:01:28.297Z,101734.78
2022-10-09T08:03:56.220Z,101744.47
2022-10-09T08:06:23.893Z,101745.31
2022-10-09T08:08:55.601Z,101734.09
2022-10-09T08:11:24.613Z,101727.56
2022-10-09T08:13:52.472Z,101736.34
2022-10-09T08:16:21.019Z,101739.28
2022-10-09T08:18:48.951Z,101721.31
2022-10-09T08:21:18.506Z,101748.66
2022-10-09T08:23:45.730Z,101715.03
2022-10-09T08:26:18.770Z,101735.59
2022-10-09T08:28:51.526Z,101730.00
2022-10-09T08:31:20.250Z,101751.41
2022-10-09T08:33:48.223Z,101739.16
2022-10-09T08:36:18.007Z,101730.03
2022-10-09T08:38:47.930Z,101748.63
2022-10-09T08:41:38.001Z,101769.03
2022-10-09T08:44:28.890Z,101754.34
2022-10-09T08:47:25.496Z,101745.00
2022-10-09T08:50:10.814Z,101761.03
2022-10-09T08:52:50.290Z,101759.13
2022-10-09T08:55:44.673Z,101758.63
2022-10-09T08:58:19.691Z,101744.25
2022-10-09T09:00:55.648Z,101766.69
2022-10-09T09:04:12.209Z,101762.66
2022-10-09T09:06:58.627Z,101760.41
2022-10-09T09:10:11.172Z,101752.09
2022-10-09T09:12:55.784Z,101730.16
2022-10-09T09:15:59.043Z,101762.34
2022-10-09T09:18:42.551Z,101750.03
2022-10-09T09:21:26.010Z,101753.13
2022-10-09T09:23:53.679Z,101735.91
2022-10-09T09:26:21.997Z,101744.81
2022-10-09T09:29:01.947Z,101747.03
2022-10-09T09:31:40.191Z,101734.03
2022-10-09T09:34:16.394Z,101743.78
2022-10-09T09:36:58.108Z,101751.66
2022-10-09T09:40:24.277Z,101736.06
2022-10-09T09:42:26.461Z,101709.50
2022-10-09T09:45:09.311Z,101740.75
2022-10-09T09:47:47.819Z,101734.34
2022-10-09T09:50:42.368Z,101734.41
2022-10-09T09:53:34.140Z,101729.34
2022-10-09T09:56:02.247Z,101718.19
2022-10-09T09:58:51.103Z,101732.16
2022-10-09T10:01:29.728Z,101736.22
